DAL632 SEQM-KATL
Flight info
| Callsign | DAL632 |
|---|---|
| Flight time | N/A |
| Altitude | 34000 |
| Route | NEGAL UM674 TBG/N0475F360 UL465 GCM UG448 IKBIX/N0471F370 Y183 PEAKY/N0472F360 Q118 FEMID/N0468F380 Q118 SHEEK Q110 DAWWN DCT BEORN HOBTT3 |
| Aircraft | B763/H-SDE3FGHIM3RWXY/LB1 |
Departure
| Time | 2026-04-29 13:06 |
|---|---|
| Airport | Mariscal Sucre International Airport (SEQM) |
Arrival
| Time | N/A |
|---|---|
| Airport | Hartsfield Jackson Atlanta International Airport (KATL) |
| Time | Latitude | Longitude | Altitude | Speed | Heading |
|---|---|---|---|---|---|
| 2026-04-29 12:44 | -0.12316 | -78.35930 | 7891 ft | 0 kts | 267° |
| 2026-04-29 12:54 | -0.12315 | -78.35916 | 7891 ft | 2 kts | 267° |
| 2026-04-29 12:54 | -0.12315 | -78.35901 | 7891 ft | 2 kts | 267° |
| 2026-04-29 12:55 | -0.12314 | -78.35886 | 7891 ft | 2 kts | 267° |
| 2026-04-29 12:55 | -0.12313 | -78.35872 | 7891 ft | 1 kts | 267° |
| 2026-04-29 12:55 | -0.12313 | -78.35862 | 7891 ft | 2 kts | 249° |
| 2026-04-29 12:55 | -0.12304 | -78.35850 | 7891 ft | 2 kts | 213° |
| 2026-04-29 12:56 | -0.12291 | -78.35844 | 7891 ft | 1 kts | 182° |
| 2026-04-29 12:56 | -0.12285 | -78.35844 | 7891 ft | 1 kts | 175° |
| 2026-04-29 12:56 | -0.12283 | -78.35844 | 7891 ft | 0 kts | 177° |
| 2026-04-29 12:59 | -0.12296 | -78.35844 | 7891 ft | 5 kts | 179° |
| 2026-04-29 12:59 | -0.12351 | -78.35834 | 7891 ft | 8 kts | 141° |
| 2026-04-29 12:59 | -0.12364 | -78.35789 | 7891 ft | 6 kts | 92° |
| 2026-04-29 13:00 | -0.12362 | -78.35736 | 7892 ft | 9 kts | 88° |
| 2026-04-29 13:00 | -0.12359 | -78.35654 | 7892 ft | 14 kts | 87° |
| 2026-04-29 13:00 | -0.12292 | -78.35616 | 7891 ft | 14 kts | 357° |
| 2026-04-29 13:00 | -0.12163 | -78.35622 | 7887 ft | 22 kts | 357° |
| 2026-04-29 13:01 | -0.11972 | -78.35630 | 7877 ft | 31 kts | 358° |
| 2026-04-29 13:01 | -0.11753 | -78.35638 | 7866 ft | 28 kts | 357° |
| 2026-04-29 13:01 | -0.11554 | -78.35648 | 7862 ft | 27 kts | 357° |
| 2026-04-29 13:01 | -0.11367 | -78.35656 | 7853 ft | 27 kts | 358° |
| 2026-04-29 13:02 | -0.11177 | -78.35663 | 7843 ft | 27 kts | 357° |
| 2026-04-29 13:02 | -0.10984 | -78.35672 | 7833 ft | 27 kts | 356° |
| 2026-04-29 13:02 | -0.10790 | -78.35682 | 7824 ft | 28 kts | 358° |
| 2026-04-29 13:02 | -0.10626 | -78.35688 | 7824 ft | 17 kts | 357° |
| 2026-04-29 13:03 | -0.10576 | -78.35628 | 7826 ft | 9 kts | 85° |
| 2026-04-29 13:03 | -0.10576 | -78.35595 | 7830 ft | 1 kts | 89° |
| 2026-04-29 13:03 | -0.10575 | -78.35574 | 7833 ft | 4 kts | 89° |
| 2026-04-29 13:03 | -0.10576 | -78.35549 | 7836 ft | 2 kts | 100° |
| 2026-04-29 13:04 | -0.10606 | -78.35519 | 7837 ft | 8 kts | 173° |
| 2026-04-29 13:04 | -0.10615 | -78.35519 | 7837 ft | 0 kts | 177° |
| 2026-04-29 13:04 | -0.10617 | -78.35519 | 7838 ft | 2 kts | 177° |
| 2026-04-29 13:05 | -0.10736 | -78.35513 | 7841 ft | 38 kts | 177° |
| 2026-04-29 13:05 | -0.11164 | -78.35494 | 7853 ft | 85 kts | 177° |
| 2026-04-29 13:05 | -0.11905 | -78.35463 | 7879 ft | 126 kts | 178° |
| 2026-04-29 13:05 | -0.12904 | -78.35420 | 7923 ft | 161 kts | 177° |
| 2026-04-29 13:06 | -0.14149 | -78.35363 | 8022 ft | 189 kts | 177° |
| 2026-04-29 13:06 | -0.15520 | -78.35304 | 8372 ft | 200 kts | 176° |
| 2026-04-29 13:06 | -0.16914 | -78.35232 | 8977 ft | 199 kts | 176° |
| 2026-04-29 13:06 | -0.18340 | -78.35135 | 9289 ft | 214 kts | 175° |
| 2026-04-29 13:07 | -0.19923 | -78.35011 | 9374 ft | 241 kts | 175° |
| 2026-04-29 13:07 | -0.21711 | -78.34892 | 9478 ft | 270 kts | 176° |
| 2026-04-29 13:07 | -0.23647 | -78.34770 | 9925 ft | 285 kts | 176° |
| 2026-04-29 13:07 | -0.25644 | -78.34650 | 10681 ft | 289 kts | 176° |
| 2026-04-29 13:08 | -0.27669 | -78.34530 | 11262 ft | 300 kts | 175° |
| 2026-04-29 13:08 | -0.29864 | -78.34400 | 11306 ft | 332 kts | 176° |
| 2026-04-29 13:08 | -0.32287 | -78.34576 | 11396 ft | 363 kts | 192° |
| 2026-04-29 13:08 | -0.34723 | -78.35513 | 11786 ft | 384 kts | 210° |
| 2026-04-29 13:09 | -0.36836 | -78.37141 | 12624 ft | 391 kts | 225° |
| 2026-04-29 13:09 | -0.38482 | -78.39311 | 13413 ft | 397 kts | 240° |
| 2026-04-29 13:09 | -0.39611 | -78.41846 | 14144 ft | 404 kts | 249° |
| 2026-04-29 13:09 | -0.40633 | -78.44504 | 14860 ft | 410 kts | 251° |
| 2026-04-29 13:10 | -0.41281 | -78.47286 | 15459 ft | 418 kts | 265° |
| 2026-04-29 13:10 | -0.41299 | -78.50163 | 16188 ft | 419 kts | 276° |
| 2026-04-29 13:10 | -0.40809 | -78.53043 | 16690 ft | 427 kts | 287° |